Time;durP1;ratioP1;P1;durP2;ratioP2;P2;SDS_P1;SDS_P2;PMS_P1;PMS_P2;Temp;Humidity;BMP_temperature;BMP_pressure;BME280_temperature;BME280_humidity;BME280_pressure;Samples;Min_cycle;Max_cycle;Signal;HPM_P1;HPM_P2
2022/01/29 00:01:04;;;;;;;33.65;19.48;;;7.20;99.90;;;;;;5076336;28;20399;-64
2022/01/29 00:03:35;;;;;;;40.50;23.98;;;7.30;99.90;;;;;;5067690;28;20086;-64
2022/01/29 00:06:02;;;;;;;39.72;22.88;;;7.30;99.90;;;;;;5077773;28;20442;-64
2022/01/29 00:08:27;;;;;;;34.13;22.08;;;7.30;99.90;;;;;;5096246;28;20048;-64
2022/01/29 00:10:58;;;;;;;36.17;22.98;;;7.30;99.90;;;;;;5075476;28;20053;-64
2022/01/29 00:13:23;;;;;;;36.80;24.40;;;7.20;99.90;;;;;;5083846;28;20044;-64
2022/01/29 00:15:49;;;;;;;37.30;25.73;;;7.30;99.90;;;;;;5084109;28;20040;-64
2022/01/29 00:18:15;;;;;;;34.20;25.58;;;7.20;99.90;;;;;;5072853;28;20040;-64
2022/01/29 00:20:40;;;;;;;40.33;25.10;;;7.30;99.90;;;;;;5072006;28;20060;-64
2022/01/29 00:23:06;;;;;;;37.95;27.00;;;7.20;99.90;;;;;;5084551;28;20051;-64
2022/01/29 00:25:32;;;;;;;39.95;27.23;;;7.20;99.90;;;;;;5098763;28;20048;-64
2022/01/29 00:27:59;;;;;;;40.08;25.30;;;7.20;99.90;;;;;;5083182;28;20072;-64
2022/01/29 00:30:31;;;;;;;36.42;26.48;;;7.10;99.90;;;;;;5070704;28;20059;-64
2022/01/29 00:32:57;;;;;;;37.97;26.50;;;7.20;99.90;;;;;;5067194;28;20052;-64
2022/01/29 00:35:22;;;;;;;40.17;28.92;;;7.20;99.90;;;;;;5088091;28;20069;-64
2022/01/29 00:37:48;;;;;;;41.10;28.83;;;7.10;99.90;;;;;;5064086;28;20072;-64
2022/01/29 00:40:14;;;;;;;49.83;30.85;;;7.10;99.90;;;;;;5080346;28;20091;-64
2022/01/29 00:42:41;;;;;;;44.47;30.23;;;7.10;99.90;;;;;;5062626;28;20055;-64
2022/01/29 00:45:07;;;;;;;51.40;31.42;;;7.20;99.90;;;;;;5088567;28;20076;-64
2022/01/29 00:47:33;;;;;;;39.85;29.40;;;7.10;99.90;;;;;;5073683;28;20056;-64
2022/01/29 00:49:59;;;;;;;50.38;32.05;;;7.10;99.90;;;;;;5086902;28;20036;-64
2022/01/29 00:52:25;;;;;;;47.35;33.90;;;7.10;99.90;;;;;;5075245;28;20060;-64
2022/01/29 00:54:50;;;;;;;47.50;31.52;;;7.00;99.90;;;;;;5092229;28;20054;-64
2022/01/29 00:57:16;;;;;;;55.47;33.50;;;7.00;99.90;;;;;;5074083;28;20055;-64
2022/01/29 00:59:42;;;;;;;47.03;31.98;;;6.90;99.90;;;;;;5072875;28;20083;-64
2022/01/29 01:02:11;;;;;;;47.78;33.13;;;7.00;99.90;;;;;;5088754;28;20051;-64
2022/01/29 01:04:39;;;;;;;47.20;35.00;;;6.90;99.90;;;;;;5063509;28;20075;-64
2022/01/29 01:07:09;;;;;;;52.65;34.17;;;6.80;99.90;;;;;;5071085;28;20053;-64
2022/01/29 01:09:34;;;;;;;52.97;34.60;;;6.80;99.90;;;;;;5072693;28;20075;-64
2022/01/29 01:12:01;;;;;;;53.00;34.15;;;6.90;99.90;;;;;;5057655;28;20048;-64
2022/01/29 01:14:26;;;;;;;48.45;34.05;;;6.80;99.90;;;;;;5087776;28;20045;-64
2022/01/29 01:16:52;;;;;;;52.75;34.40;;;6.70;99.90;;;;;;5065232;28;20124;-64
2022/01/29 01:19:18;;;;;;;53.55;35.40;;;6.90;99.90;;;;;;5075118;28;20044;-64
2022/01/29 01:21:44;;;;;;;52.10;36.35;;;6.90;99.90;;;;;;5066539;28;20088;-64
2022/01/29 01:24:09;;;;;;;54.03;33.72;;;6.90;99.90;;;;;;5082478;28;20071;-64
2022/01/29 01:26:35;;;;;;;52.45;34.53;;;6.80;99.90;;;;;;5086420;28;20041;-64
2022/01/29 01:29:00;;;;;;;49.42;34.97;;;6.90;99.90;;;;;;5072430;28;20475;-64
2022/01/29 01:31:26;;;;;;;51.92;33.33;;;6.80;99.90;;;;;;5076735;28;20104;-64
2022/01/29 01:33:52;;;;;;;54.50;34.58;;;6.80;99.90;;;;;;5074574;28;20044;-64
2022/01/29 01:36:22;;;;;;;50.28;31.80;;;6.80;99.90;;;;;;5069649;28;20044;-64
2022/01/29 01:39:02;;;;;;;55.67;33.33;;;6.90;99.90;;;;;;5066223;28;20048;-64
2022/01/29 01:41:30;;;;;;;52.33;34.42;;;6.90;99.90;;;;;;5073966;28;20045;-64
2022/01/29 01:44:03;;;;;;;49.22;31.80;;;6.80;99.90;;;;;;5073202;28;20057;-64
2022/01/29 01:46:28;;;;;;;45.67;31.90;;;6.80;99.90;;;;;;5074555;28;20047;-64
2022/01/29 01:48:55;;;;;;;47.03;31.13;;;6.70;99.90;;;;;;5081905;28;20045;-64
2022/01/29 01:51:21;;;;;;;47.30;32.00;;;6.90;99.90;;;;;;5096472;28;20336;-64
2022/01/29 01:53:48;;;;;;;46.70;30.48;;;7.00;99.90;;;;;;5077286;28;20048;-64
2022/01/29 01:56:13;;;;;;;44.42;31.35;;;6.90;99.90;;;;;;5086912;28;20036;-64
2022/01/29 01:58:39;;;;;;;44.80;30.30;;;7.00;99.90;;;;;;5085597;28;20046;-64
2022/01/29 02:01:05;;;;;;;44.25;31.10;;;6.90;99.90;;;;;;5074912;28;20040;-64
2022/01/29 02:03:31;;;;;;;51.35;30.98;;;7.00;99.90;;;;;;5057472;28;20054;-64
2022/01/29 02:05:58;;;;;;;46.95;30.52;;;7.00;99.90;;;;;;5085335;28;20048;-64
2022/01/29 02:08:24;;;;;;;51.40;32.10;;;6.90;99.90;;;;;;5086020;28;20064;-64
2022/01/29 02:10:50;;;;;;;50.38;30.92;;;7.00;99.90;;;;;;5067784;28;20052;-64
2022/01/29 02:13:16;;;;;;;48.75;31.45;;;7.00;99.90;;;;;;5078324;28;20084;-64
2022/01/29 02:15:42;;;;;;;48.40;32.08;;;6.90;99.90;;;;;;5060340;28;20074;-64
2022/01/29 02:18:15;;;;;;;45.50;30.50;;;7.00;99.90;;;;;;5067103;28;20047;-64
2022/01/29 02:20:43;;;;;;;45.20;29.10;;;6.90;99.90;;;;;;5067384;28;20070;-64
2022/01/29 02:23:09;;;;;;;48.60;31.38;;;7.10;99.90;;;;;;5075571;28;20446;-64
2022/01/29 02:25:46;;;;;;;52.88;33.55;;;7.00;99.90;;;;;;5081739;28;20108;-64
2022/01/29 02:28:23;;;;;;;50.45;31.35;;;7.00;99.90;;;;;;5071949;28;20111;-64
2022/01/29 02:30:58;;;;;;;51.47;32.80;;;7.00;99.90;;;;;;5066625;28;20052;-64
2022/01/29 02:33:25;;;;;;;47.78;32.50;;;7.00;99.90;;;;;;5078590;28;20044;-64
2022/01/29 02:35:52;;;;;;;56.17;32.63;;;7.00;99.90;;;;;;5052044;28;20040;-64
2022/01/29 02:38:21;;;;;;;53.83;32.63;;;7.00;99.90;;;;;;5055765;28;20112;-64
2022/01/29 02:40:52;;;;;;;58.40;34.08;;;7.10;99.90;;;;;;5066178;28;20492;-64
2022/01/29 02:43:22;;;;;;;54.20;31.55;;;7.10;99.90;;;;;;5081731;28;20045;-64
2022/01/29 02:45:52;;;;;;;60.70;33.28;;;7.00;99.90;;;;;;5066443;28;20052;-64
2022/01/29 02:48:17;;;;;;;55.58;32.60;;;7.20;99.90;;;;;;5080045;28;20179;-64
2022/01/29 02:50:43;;;;;;;56.28;31.25;;;7.00;99.90;;;;;;5070851;28;20434;-64
2022/01/29 02:53:09;;;;;;;64.55;34.67;;;7.20;99.90;;;;;;5084349;28;20048;-64
2022/01/29 02:55:35;;;;;;;58.47;32.15;;;7.20;99.90;;;;;;5075998;28;20139;-64
2022/01/29 02:58:01;;;;;;;58.22;31.50;;;7.20;99.90;;;;;;5079648;28;20155;-64
2022/01/29 03:00:27;;;;;;;50.33;32.30;;;7.10;99.90;;;;;;5065252;28;20040;-64
2022/01/29 03:02:53;;;;;;;53.80;29.20;;;7.20;99.90;;;;;;5075084;28;20048;-64
2022/01/29 03:05:18;;;;;;;57.15;31.65;;;7.20;99.90;;;;;;5081737;28;20075;-64
2022/01/29 03:07:45;;;;;;;51.20;30.55;;;7.20;99.90;;;;;;5079224;28;20128;-64
2022/01/29 03:10:11;;;;;;;63.03;32.67;;;7.30;99.90;;;;;;5106238;28;20051;-64
2022/01/29 03:12:37;;;;;;;59.75;32.20;;;7.20;99.90;;;;;;5074521;28;20093;-64
2022/01/29 03:15:07;;;;;;;57.90;31.58;;;7.30;99.90;;;;;;5094888;28;20070;-64
2022/01/29 03:17:33;;;;;;;52.40;30.08;;;7.30;99.90;;;;;;5101269;28;20616;-64
2022/01/29 03:19:59;;;;;;;51.50;30.23;;;7.30;99.90;;;;;;5105720;28;20062;-64
2022/01/29 03:22:25;;;;;;;56.00;30.38;;;7.30;99.90;;;;;;5095612;28;20522;-64
2022/01/29 03:24:51;;;;;;;52.72;30.15;;;7.30;99.90;;;;;;5097194;28;20044;-64
2022/01/29 03:27:16;;;;;;;56.05;30.73;;;7.30;99.90;;;;;;5101329;28;20067;-64
2022/01/29 03:29:42;;;;;;;52.45;29.65;;;7.40;99.90;;;;;;5103936;28;20171;-64
2022/01/29 03:32:08;;;;;;;52.88;30.92;;;7.40;99.90;;;;;;5081864;28;20054;-64
2022/01/29 03:34:34;;;;;;;48.30;29.65;;;7.40;99.90;;;;;;5086465;28;20048;-64
2022/01/29 03:37:01;;;;;;;51.90;29.02;;;7.40;99.90;;;;;;5089117;28;20119;-64
2022/01/29 03:39:28;;;;;;;49.70;27.35;;;7.50;99.90;;;;;;5089761;28;20071;-64
2022/01/29 03:41:59;;;;;;;52.90;29.20;;;7.50;99.90;;;;;;5089904;28;20119;-64
2022/01/29 03:44:25;;;;;;;49.97;27.80;;;7.60;99.90;;;;;;5103938;28;20724;-64
2022/01/29 03:46:51;;;;;;;49.67;26.38;;;7.50;99.90;;;;;;5086836;28;20391;-64
2022/01/29 03:49:16;;;;;;;47.72;27.42;;;7.60;99.90;;;;;;5097022;28;20058;-64
2022/01/29 03:51:42;;;;;;;45.80;26.65;;;7.70;99.90;;;;;;5088000;28;20537;-64
2022/01/29 03:54:08;;;;;;;41.00;25.38;;;7.60;99.90;;;;;;5101824;28;20051;-64
2022/01/29 03:56:33;;;;;;;46.38;25.45;;;7.70;99.90;;;;;;5085595;28;20108;-64
2022/01/29 03:58:59;;;;;;;42.83;24.73;;;7.70;99.90;;;;;;5090532;28;20051;-64
2022/01/29 04:01:25;;;;;;;43.55;24.95;;;7.70;99.90;;;;;;5105300;28;20040;-64
2022/01/29 04:03:50;;;;;;;42.75;24.42;;;7.70;99.90;;;;;;5074331;28;20049;-64
2022/01/29 04:06:16;;;;;;;35.47;23.13;;;7.80;99.90;;;;;;5075263;28;20066;-64
2022/01/29 04:08:43;;;;;;;38.88;22.90;;;7.80;99.90;;;;;;5088520;28;20070;-64
2022/01/29 04:11:11;;;;;;;41.42;25.08;;;7.90;99.90;;;;;;5065064;28;20052;-64
2022/01/29 04:13:40;;;;;;;38.92;23.45;;;7.80;99.90;;;;;;5064850;28;20052;-64
2022/01/29 04:16:06;;;;;;;35.08;21.80;;;8.00;99.90;;;;;;5075751;28;20536;-64
2022/01/29 04:18:32;;;;;;;37.55;23.00;;;7.90;99.90;;;;;;5067620;28;20115;-64
2022/01/29 04:20:57;;;;;;;34.75;23.35;;;8.00;99.90;;;;;;5052582;28;20056;-64
2022/01/29 04:23:23;;;;;;;39.22;22.42;;;7.90;99.90;;;;;;5086686;28;20063;-64
2022/01/29 04:25:52;;;;;;;43.70;24.30;;;8.00;99.90;;;;;;5070247;28;20045;-64
2022/01/29 04:28:18;;;;;;;44.97;24.40;;;8.00;99.90;;;;;;5048761;28;20053;-64
2022/01/29 04:30:48;;;;;;;40.45;22.75;;;7.90;99.90;;;;;;5066240;28;20063;-64
2022/01/29 04:33:28;;;;;;;44.17;25.55;;;8.00;99.90;;;;;;5070673;28;20040;-64
2022/01/29 04:35:58;;;;;;;44.33;24.10;;;8.00;99.90;;;;;;5080639;28;20048;-64
2022/01/29 04:38:24;;;;;;;;;;;8.00;99.90;;;;;;5069050;28;20048;-64
2022/01/29 04:40:50;;;;;;;40.90;22.60;;;8.00;99.90;;;;;;5100694;28;19938;-64
2022/01/29 04:43:16;;;;;;;46.92;23.23;;;8.10;99.90;;;;;;5081847;28;20128;-64
2022/01/29 04:45:42;;;;;;;45.28;25.05;;;8.00;99.90;;;;;;5063037;28;20040;-64
2022/01/29 04:48:07;;;;;;;38.58;23.45;;;8.00;99.90;;;;;;5071081;28;20098;-64
2022/01/29 04:50:33;;;;;;;37.05;23.02;;;8.00;99.90;;;;;;5066811;28;20127;-64
2022/01/29 04:52:59;;;;;;;42.38;23.80;;;8.00;99.90;;;;;;5068379;28;20043;-64
2022/01/29 04:55:25;;;;;;;40.35;23.00;;;8.00;99.90;;;;;;5079806;28;20044;-64
2022/01/29 04:57:50;;;;;;;40.63;23.50;;;8.10;99.90;;;;;;5068866;28;20052;-64
2022/01/29 05:00:20;;;;;;;36.53;22.02;;;8.10;99.90;;;;;;5068053;28;20100;-64
2022/01/29 05:02:53;;;;;;;;;;;8.00;99.90;;;;;;5068817;28;20523;-64
2022/01/29 05:05:19;;;;;;;41.47;23.35;;;8.00;99.90;;;;;;5083451;28;19921;-64
2022/01/29 05:07:45;;;;;;;36.88;23.13;;;8.00;99.90;;;;;;5082026;28;20051;-64
2022/01/29 05:10:13;;;;;;;36.10;22.55;;;8.10;99.90;;;;;;5058568;28;20050;-64
2022/01/29 05:12:47;;;;;;;37.38;23.52;;;8.20;99.90;;;;;;5051806;28;20071;-64
2022/01/29 05:28:35;;;;;;;37.13;22.10;;;8.10;99.90;;;;;;5060771;28;20543;-64
2022/01/29 05:31:02;;;;;;;37.00;21.90;;;8.20;99.90;;;;;;5073550;28;20045;-64
2022/01/29 05:33:27;;;;;;;35.05;22.05;;;8.10;99.90;;;;;;5083946;28;20044;-64
2022/01/29 05:35:53;;;;;;;38.35;23.48;;;8.20;99.90;;;;;;5078817;28;20087;-64
2022/01/29 05:38:19;;;;;;;40.25;21.80;;;8.20;99.90;;;;;;5064614;28;20095;-64
2022/01/29 05:40:45;;;;;;;37.60;23.30;;;8.20;99.90;;;;;;5047782;28;20049;-64
2022/01/29 05:43:11;;;;;;;32.20;20.90;;;8.20;99.90;;;;;;5074986;28;20339;-64
2022/01/29 05:45:36;;;;;;;32.55;20.08;;;8.20;99.90;;;;;;5068706;28;20056;-64
2022/01/29 05:48:02;;;;;;;37.40;23.42;;;8.30;99.90;;;;;;5051587;28;20104;-64
2022/01/29 05:50:28;;;;;;;37.75;22.88;;;8.30;99.90;;;;;;5080186;28;20063;-64
2022/01/29 05:52:54;;;;;;;43.63;24.48;;;8.20;99.90;;;;;;5058205;28;20048;-64
2022/01/29 05:55:20;;;;;;;40.30;23.65;;;8.20;99.90;;;;;;5081456;28;20042;-64
2022/01/29 05:57:45;;;;;;;43.25;23.67;;;8.20;99.90;;;;;;5069557;28;20053;-64
2022/01/29 06:00:11;;;;;;;38.83;22.15;;;8.20;99.90;;;;;;5068204;28;20045;-64
2022/01/29 06:02:37;;;;;;;37.38;24.00;;;8.40;99.90;;;;;;5058318;28;20055;-64
2022/01/29 06:05:03;;;;;;;42.85;22.73;;;8.30;99.90;;;;;;5077662;28;20486;-64
2022/01/29 06:07:29;;;;;;;33.05;23.27;;;8.30;99.90;;;;;;5065488;28;20037;-64
2022/01/29 06:09:54;;;;;;;35.53;22.00;;;8.30;99.90;;;;;;5077499;28;20067;-64
2022/01/29 06:12:20;;;;;;;37.38;23.92;;;8.30;99.90;;;;;;5080762;28;20056;-64
2022/01/29 06:14:46;;;;;;;37.90;21.90;;;8.20;99.90;;;;;;5081917;28;20111;-64
2022/01/29 06:17:12;;;;;;;34.10;21.98;;;8.40;99.90;;;;;;5081963;28;20507;-64
2022/01/29 06:19:37;;;;;;;36.38;22.02;;;8.30;99.90;;;;;;5069309;28;20098;-64
2022/01/29 06:22:09;;;;;;;37.45;22.05;;;8.30;99.90;;;;;;5097259;28;20527;-64
2022/01/29 06:24:34;;;;;;;35.40;22.77;;;8.40;99.90;;;;;;5083178;28;20052;-64
2022/01/29 06:27:00;;;;;;;37.35;22.05;;;8.30;99.90;;;;;;5059835;28;20057;-64
2022/01/29 06:29:26;;;;;;;32.28;20.45;;;8.30;99.90;;;;;;5076832;28;20044;-64
2022/01/29 06:31:51;;;;;;;30.70;18.92;;;8.40;99.90;;;;;;5093892;28;20492;-64
2022/01/29 06:34:17;;;;;;;31.55;20.98;;;8.50;99.90;;;;;;5062816;28;20515;-64
2022/01/29 06:36:43;;;;;;;30.60;19.90;;;8.40;99.90;;;;;;5060048;28;20068;-64
2022/01/29 06:39:08;;;;;;;32.72;19.70;;;8.50;99.90;;;;;;5062951;28;20048;-64
2022/01/29 06:41:34;;;;;;;26.85;19.73;;;8.40;99.90;;;;;;5065341;28;20058;-64
2022/01/29 06:44:00;;;;;;;27.00;18.17;;;8.50;99.90;;;;;;5082893;28;20108;-64
2022/01/29 06:46:26;;;;;;;30.20;17.63;;;8.60;99.90;;;;;;5081068;28;20045;-64
2022/01/29 06:48:52;;;;;;;29.85;18.38;;;8.60;99.90;;;;;;5080134;28;20055;-64
2022/01/29 06:51:18;;;;;;;30.00;19.55;;;8.50;99.90;;;;;;5062070;28;20067;-64
2022/01/29 06:53:44;;;;;;;26.38;17.10;;;8.50;99.90;;;;;;5085472;28;20036;-64
2022/01/29 06:56:10;;;;;;;26.48;17.27;;;8.60;99.90;;;;;;5057764;28;20044;-64
2022/01/29 06:58:36;;;;;;;25.65;16.95;;;8.60;99.90;;;;;;5098076;28;20049;-64
2022/01/29 07:01:02;;;;;;;27.05;16.55;;;8.70;99.90;;;;;;5089934;28;20049;-64
2022/01/29 07:03:27;;;;;;;26.50;16.17;;;8.70;99.90;;;;;;5062955;28;20051;-64
2022/01/29 07:05:53;;;;;;;24.65;16.08;;;8.60;99.90;;;;;;5067881;28;20772;-64
2022/01/29 07:08:19;;;;;;;25.88;16.05;;;8.70;99.90;;;;;;5048281;28;20059;-64
2022/01/29 07:10:46;;;;;;;24.05;15.60;;;8.70;99.90;;;;;;5063050;28;20447;-64
2022/01/29 07:13:12;;;;;;;29.38;15.30;;;8.80;99.90;;;;;;5046537;28;20041;-64
2022/01/29 07:15:38;;;;;;;29.77;15.70;;;8.80;99.90;;;;;;5083557;28;20040;-64
2022/01/29 07:18:04;;;;;;;22.50;14.77;;;8.70;99.90;;;;;;5062657;28;20047;-64
2022/01/29 07:20:30;;;;;;;27.23;15.27;;;8.80;99.90;;;;;;5065596;28;20080;-64
2022/01/29 07:22:55;;;;;;;25.33;14.57;;;8.80;99.90;;;;;;5062104;28;20049;-64
2022/01/29 07:25:21;;;;;;;31.10;15.02;;;8.80;99.90;;;;;;5063863;28;20048;-64
2022/01/29 07:27:47;;;;;;;27.42;16.20;;;8.70;99.90;;;;;;5083723;28;20045;-64
2022/01/29 07:30:12;;;;;;;26.60;15.25;;;8.70;99.90;;;;;;5063042;28;20057;-64
2022/01/29 07:32:45;;;;;;;30.55;15.95;;;8.70;99.90;;;;;;5062388;28;20045;-64
2022/01/29 07:35:12;;;;;;;25.23;15.40;;;8.70;99.90;;;;;;5080379;28;20100;-64
2022/01/29 07:37:37;;;;;;;28.88;16.02;;;8.70;99.90;;;;;;5062009;28;20037;-64
2022/01/29 07:40:05;;;;;;;26.17;16.27;;;8.80;99.90;;;;;;5045519;28;20573;-64
2022/01/29 07:42:30;;;;;;;32.05;19.00;;;8.70;99.90;;;;;;5064483;28;20404;-64
2022/01/29 07:44:56;;;;;;;27.88;17.88;;;8.80;99.90;;;;;;5061927;28;20052;-64
2022/01/29 07:47:22;;;;;;;30.02;19.85;;;8.60;99.90;;;;;;5063571;28;20060;-64
2022/01/29 07:49:47;;;;;;;31.90;20.20;;;8.70;99.90;;;;;;5083763;28;20043;-64
2022/01/29 07:52:13;;;;;;;28.98;18.60;;;8.70;99.90;;;;;;5084788;28;20041;-64
2022/01/29 07:54:39;;;;;;;28.92;16.92;;;8.60;99.90;;;;;;5090073;28;20037;-64
2022/01/29 07:57:05;;;;;;;33.90;19.80;;;8.60;99.90;;;;;;5089868;28;20055;-64
2022/01/29 07:59:31;;;;;;;29.40;18.50;;;8.60;99.90;;;;;;5091642;28;20230;-64
2022/01/29 08:01:56;;;;;;;30.67;19.73;;;8.50;99.90;;;;;;5089920;28;20047;-64
2022/01/29 08:04:24;;;;;;;29.02;18.85;;;8.60;99.90;;;;;;5070371;28;20558;-64
2022/01/29 08:06:50;;;;;;;31.73;18.15;;;8.60;99.90;;;;;;5090164;28;20066;-64
2022/01/29 08:09:16;;;;;;;30.02;19.52;;;8.60;99.90;;;;;;5073789;28;20049;-64
2022/01/29 08:11:42;;;;;;;33.88;18.65;;;8.60;99.90;;;;;;5113722;28;20056;-64
2022/01/29 08:14:09;;;;;;;30.08;19.75;;;8.70;99.90;;;;;;5071205;28;20043;-64
2022/01/29 08:16:35;;;;;;;34.63;19.85;;;8.60;99.90;;;;;;5080324;28;20072;-64
2022/01/29 08:19:01;;;;;;;31.95;20.38;;;8.60;99.90;;;;;;5064928;28;20040;-64
2022/01/29 08:21:26;;;;;;;27.05;17.63;;;8.70;99.90;;;;;;5099495;28;20102;-64
2022/01/29 08:23:52;;;;;;;35.78;19.45;;;8.70;99.90;;;;;;5072851;28;20045;-64
2022/01/29 08:26:18;;;;;;;25.38;15.88;;;8.70;99.90;;;;;;5079944;28;20048;-66
2022/01/29 08:28:43;;;;;;;27.08;16.70;;;8.70;99.90;;;;;;5098982;28;20076;-70
2022/01/29 08:31:09;;;;;;;26.55;16.67;;;8.80;99.90;;;;;;5102370;28;20048;-64
2022/01/29 08:33:35;;;;;;;24.20;15.48;;;8.70;99.90;;;;;;5071323;28;20167;-65
2022/01/29 08:36:03;;;;;;;29.27;16.48;;;8.80;99.90;;;;;;5063066;28;20036;-65
2022/01/29 08:38:29;;;;;;;24.50;14.40;;;9.00;99.90;;;;;;5071589;28;20079;-65
2022/01/29 08:40:55;;;;;;;23.65;14.68;;;9.00;99.90;;;;;;5071554;28;20061;-65
2022/01/29 08:43:25;;;;;;;23.38;14.27;;;9.00;99.90;;;;;;5062365;28;20136;-65
2022/01/29 08:45:52;;;;;;;24.65;13.80;;;9.00;99.90;;;;;;5092023;28;20040;-65
2022/01/29 08:48:18;;;;;;;22.20;13.13;;;9.10;99.90;;;;;;5067662;28;20052;-65
2022/01/29 08:50:44;;;;;;;21.55;12.40;;;9.10;99.90;;;;;;5075686;28;20036;-65
2022/01/29 08:53:11;;;;;;;20.23;12.50;;;9.10;99.90;;;;;;5098134;28;20103;-65
2022/01/29 08:55:37;;;;;;;17.77;11.48;;;9.10;99.90;;;;;;5085698;28;20064;-65
2022/01/29 08:58:08;;;;;;;19.73;11.27;;;9.20;99.90;;;;;;5085430;28;20051;-65
2022/01/29 09:00:35;;;;;;;23.13;10.90;;;9.20;99.90;;;;;;5099235;28;20515;-64
2022/01/29 09:03:01;;;;;;;16.27;9.80;;;9.30;99.90;;;;;;5102689;28;20044;-65
2022/01/29 09:05:27;;;;;;;14.05;8.77;;;9.20;99.90;;;;;;5085928;28;20046;-64
2022/01/29 09:07:52;;;;;;;13.32;8.13;;;9.30;99.90;;;;;;5085902;28;20036;-66
2022/01/29 09:10:18;;;;;;;19.42;9.45;;;9.50;99.90;;;;;;5078318;28;20105;-65
2022/01/29 09:12:44;;;;;;;16.77;8.68;;;9.40;99.90;;;;;;5082359;28;20040;-65
2022/01/29 09:15:10;;;;;;;11.93;7.65;;;9.40;99.90;;;;;;5076790;28;20059;-64
2022/01/29 09:17:39;;;;;;;13.50;8.00;;;9.40;99.90;;;;;;5083161;28;20048;-65
2022/01/29 09:20:06;;;;;;;14.98;8.05;;;9.40;99.90;;;;;;5080719;28;20043;-65
2022/01/29 09:22:32;;;;;;;14.18;7.28;;;9.50;99.90;;;;;;5087308;28;20075;-64
2022/01/29 09:24:58;;;;;;;10.93;8.00;;;9.50;99.90;;;;;;5087531;28;20498;-65
2022/01/29 09:27:23;;;;;;;12.10;6.72;;;9.50;99.90;;;;;;5069566;28;20844;-65
2022/01/29 09:29:49;;;;;;;10.77;7.57;;;9.50;99.90;;;;;;5071637;28;20036;-67
2022/01/29 09:32:15;;;;;;;12.02;7.25;;;9.60;99.90;;;;;;5087684;28;20044;-67
2022/01/29 09:34:40;;;;;;;14.05;7.75;;;9.60;99.90;;;;;;5088103;28;20184;-66
2022/01/29 09:37:06;;;;;;;16.15;7.75;;;9.60;99.90;;;;;;5091517;28;20037;-66
2022/01/29 09:39:32;;;;;;;13.45;7.50;;;9.60;99.90;;;;;;5086522;28;20070;-66
2022/01/29 09:41:58;;;;;;;12.63;7.72;;;9.60;99.90;;;;;;5060663;28;20054;-66
2022/01/29 09:44:24;;;;;;;15.93;7.80;;;9.70;99.90;;;;;;5096999;28;20048;-66
2022/01/29 09:46:51;;;;;;;11.90;7.45;;;9.60;99.90;;;;;;5075324;28;20072;-66
2022/01/29 09:49:18;;;;;;;12.05;6.95;;;9.60;99.90;;;;;;5097803;28;20043;-66
2022/01/29 09:51:44;;;;;;;10.63;6.95;;;9.70;99.90;;;;;;5075773;28;20059;-66
2022/01/29 09:54:10;;;;;;;15.27;7.68;;;9.70;99.90;;;;;;5089241;28;20056;-66
2022/01/29 09:56:36;;;;;;;14.00;7.57;;;9.70;99.90;;;;;;5070098;28;20051;-68
2022/01/29 09:59:02;;;;;;;10.07;6.55;;;9.70;99.90;;;;;;5086732;28;20066;-65
2022/01/29 10:01:28;;;;;;;10.98;6.82;;;9.70;99.90;;;;;;5087291;28;20044;-65
2022/01/29 10:04:03;;;;;;;9.68;7.13;;;9.80;99.90;;;;;;5087622;28;20083;-66
2022/01/29 10:06:29;;;;;;;11.65;6.25;;;9.70;99.90;;;;;;5084274;28;20052;-66
2022/01/29 10:08:55;;;;;;;11.32;6.40;;;9.80;99.90;;;;;;5103321;28;20167;-65
2022/01/29 10:11:23;;;;;;;10.13;6.18;;;9.90;99.90;;;;;;5085230;28;20527;-66
2022/01/29 10:13:49;;;;;;;13.00;6.10;;;10.00;99.90;;;;;;5087024;28;20040;-67
2022/01/29 10:16:20;;;;;;;11.98;6.53;;;9.90;99.90;;;;;;5120160;28;20134;-65
2022/01/29 10:19:06;;;;;;;13.13;5.22;;;9.90;99.90;;;;;;5086855;28;20044;-66
2022/01/29 10:21:34;;;;;;;10.68;5.63;;;9.90;99.90;;;;;;5086065;28;20056;-66
2022/01/29 10:24:21;;;;;;;14.07;6.28;;;9.90;99.90;;;;;;5105431;28;20054;-68
2022/01/29 10:26:51;;;;;;;13.88;5.95;;;10.00;99.90;;;;;;5102742;28;20089;-66
2022/01/29 10:29:27;;;;;;;11.45;6.55;;;10.00;99.90;;;;;;5088096;28;20123;-64
2022/01/29 10:31:57;;;;;;;11.65;5.20;;;10.00;99.90;;;;;;5087254;28;20099;-65
2022/01/29 10:34:27;;;;;;;12.85;6.43;;;10.00;99.90;;;;;;5080213;28;20039;-65
2022/01/29 10:37:20;;;;;;;13.68;5.70;;;10.00;99.90;;;;;;5100678;28;20044;-65
2022/01/29 10:39:59;;;;;;;11.07;5.15;;;10.00;99.90;;;;;;5073987;28;20058;-65
2022/01/29 10:42:36;;;;;;;12.90;5.90;;;10.00;99.90;;;;;;5086552;28;20052;-65
2022/01/29 10:45:07;;;;;;;17.50;5.18;;;10.00;99.90;;;;;;5103947;28;20036;-65
2022/01/29 10:47:54;;;;;;;10.07;5.07;;;10.10;99.90;;;;;;5086264;28;20059;-65
2022/01/29 10:50:20;;;;;;;23.67;5.93;;;10.10;99.90;;;;;;5103156;28;20044;-66
2022/01/29 10:52:46;;;;;;;9.05;4.80;;;10.10;99.90;;;;;;5086040;28;20078;-64
2022/01/29 10:55:11;;;;;;;16.45;5.90;;;10.10;99.90;;;;;;5086447;28;20073;-65
2022/01/29 10:57:40;;;;;;;8.35;4.22;;;10.10;99.90;;;;;;5085827;28;20056;-64
2022/01/29 11:00:18;;;;;;;8.77;4.45;;;10.20;99.90;;;;;;5102907;28;20044;-63
2022/01/29 11:02:45;;;;;;;13.95;4.78;;;10.20;99.90;;;;;;5119984;28;20083;-63
2022/01/29 11:05:11;;;;;;;12.98;4.43;;;10.10;99.90;;;;;;5086384;28;20044;-64
2022/01/29 11:07:37;;;;;;;9.77;4.63;;;10.10;99.90;;;;;;5085802;28;20052;-65
2022/01/29 11:10:06;;;;;;;12.02;4.82;;;10.20;99.90;;;;;;5089661;28;20059;-64
2022/01/29 11:12:32;;;;;;;11.90;4.40;;;10.20;99.90;;;;;;5085675;28;20067;-64
2022/01/29 11:15:00;;;;;;;9.40;4.00;;;10.20;99.90;;;;;;5086228;28;20399;-64
2022/01/29 11:17:28;;;;;;;12.00;4.00;;;10.10;99.90;;;;;;5085487;28;20048;-64
2022/01/29 11:19:54;;;;;;;13.35;5.18;;;10.20;99.90;;;;;;5085681;28;20077;-64
2022/01/29 11:22:22;;;;;;;7.78;3.72;;;10.20;99.90;;;;;;5083106;28;20052;-64
2022/01/29 11:24:54;;;;;;;10.15;3.10;;;10.20;99.90;;;;;;5085498;28;20032;-64
2022/01/29 11:27:24;;;;;;;10.32;4.03;;;10.10;99.90;;;;;;5084534;28;20568;-66
2022/01/29 11:30:19;;;;;;;;;;;10.10;99.90;;;;;;5085447;28;20113;-64
2022/01/29 11:32:47;;;;;;;10.32;4.20;;;10.10;99.90;;;;;;5083429;28;19930;-65
2022/01/29 11:35:16;;;;;;;9.48;4.60;;;10.10;99.90;;;;;;5084751;28;20047;-65
2022/01/29 11:37:44;;;;;;;13.45;5.38;;;10.10;99.90;;;;;;5103485;28;20040;-64
2022/01/29 11:40:26;;;;;;;10.57;4.53;;;10.10;99.90;;;;;;5085591;28;20563;-66
2022/01/29 11:43:19;;;;;;;10.30;4.30;;;10.10;99.90;;;;;;5084689;28;20104;-64
2022/01/29 11:46:15;;;;;;;11.85;4.47;;;10.10;99.90;;;;;;5083385;28;20063;-65
2022/01/29 11:48:55;;;;;;;11.02;5.00;;;10.20;99.90;;;;;;5086793;28;20495;-65
2022/01/29 11:51:47;;;;;;;9.88;4.15;;;10.10;99.90;;;;;;5085690;28;20048;-65
2022/01/29 11:54:19;;;;;;;9.10;3.50;;;10.10;99.90;;;;;;5103595;28;20055;-65
2022/01/29 11:56:45;;;;;;;8.45;3.80;;;10.10;99.90;;;;;;5085322;28;20248;-65
2022/01/29 11:59:30;;;;;;;11.80;4.05;;;10.20;99.90;;;;;;5085706;28;20106;-65
2022/01/29 12:01:57;;;;;;;9.50;3.97;;;10.20;99.90;;;;;;5084738;28;20052;-65
2022/01/29 12:04:43;;;;;;;10.13;3.85;;;10.20;99.90;;;;;;5119006;28;20048;-65
2022/01/29 12:07:19;;;;;;;11.38;3.60;;;10.20;99.90;;;;;;5085455;28;20075;-65
2022/01/29 12:09:47;;;;;;;11.13;3.47;;;10.20;99.90;;;;;;5075800;28;20470;-65
2022/01/29 12:12:15;;;;;;;9.57;3.30;;;10.20;99.90;;;;;;5089648;28;20092;-65
2022/01/29 12:14:42;;;;;;;12.98;3.13;;;10.30;99.90;;;;;;5065048;28;20427;-65
2022/01/29 12:17:08;;;;;;;8.95;3.10;;;10.30;99.90;;;;;;5082276;28;20080;-65
2022/01/29 12:19:45;;;;;;;7.70;3.08;;;10.30;99.90;;;;;;5090303;28;20055;-65
2022/01/29 12:22:23;;;;;;;9.43;2.80;;;10.30;99.90;;;;;;5065558;28;20523;-65
2022/01/29 12:24:58;;;;;;;8.65;3.22;;;10.40;99.90;;;;;;5088494;28;20041;-65
2022/01/29 12:27:38;;;;;;;10.82;3.33;;;10.40;99.90;;;;;;5083031;28;20092;-65
2022/01/29 12:30:04;;;;;;;10.38;2.92;;;10.40;99.90;;;;;;5078077;28;20033;-65
2022/01/29 12:32:30;;;;;;;8.77;2.95;;;10.40;99.90;;;;;;5085464;28;20049;-65
2022/01/29 12:34:55;;;;;;;10.20;2.47;;;10.40;99.90;;;;;;5055149;28;20067;-64
2022/01/29 12:37:21;;;;;;;10.15;3.13;;;10.50;99.90;;;;;;5051193;28;20124;-65
2022/01/29 12:39:49;;;;;;;8.57;2.60;;;10.50;99.90;;;;;;5051075;28;20056;-65
2022/01/29 12:44:56;;;;;;;11.45;3.13;;;10.60;99.90;;;;;;5069387;28;20043;-64
2022/01/29 12:47:25;;;;;;;11.73;2.80;;;10.70;99.90;;;;;;5070005;28;20054;-64
2022/01/29 12:49:51;;;;;;;8.23;3.17;;;10.60;99.90;;;;;;5066675;28;20040;-64
2022/01/29 12:52:18;;;;;;;10.73;3.45;;;10.70;99.90;;;;;;5069635;28;20055;-64
2022/01/29 12:55:00;;;;;;;11.82;3.33;;;10.70;99.90;;;;;;5070588;28;20049;-64
2022/01/29 12:57:47;;;;;;;9.82;3.17;;;10.70;99.90;;;;;;5046271;28;20048;-65
2022/01/29 13:00:18;;;;;;;16.13;3.80;;;10.60;99.90;;;;;;5058588;28;20060;-65